Time;durP1;ratioP1;P1;durP2;ratioP2;P2;SDS_P1;SDS_P2;PMS_P1;PMS_P2;Temp;Humidity;BMP_temperature;BMP_pressure;BME280_temperature;BME280_humidity;BME280_pressure;Samples;Min_cycle;Max_cycle;Signal;HPM_P1;HPM_P2
2022/01/24 00:00:07;;;;;;;;;;;;;;;;;;2058449;28;19972;-83
2022/01/24 00:01:08;;;;;;;;;;;;;;;;;;2066771;28;19920;-83
2022/01/24 00:02:08;;;;;;;;;;;;;;;;;;2066984;28;20275;-83
2022/01/24 00:03:08;;;;;;;;;;;;;;;;;;2066776;28;19992;-83
2022/01/24 00:04:09;;;;;;;;;;;;;;;;;;2067072;28;19909;-83
2022/01/24 00:05:10;;;;;;;;;;;;;;;;;;2066764;28;20367;-83
2022/01/24 00:06:14;;;;;;;;;;;;;;;;;;2067007;28;19914;-83
2022/01/24 00:07:17;;;;;;;;;;;;;;;;;;2066720;28;19972;-83
2022/01/24 00:08:18;;;;;;;;;;;;;;;;;;2066794;28;19948;-83
2022/01/24 00:09:18;;;;;;;;;;;;;;;;;;2058258;28;19925;-81
2022/01/24 00:10:22;;;;;;;;;;;;;;;;;;2050330;29;20335;-82
2022/01/24 00:11:27;;;;;;;;;;;;;;;;;;2058578;28;19929;-83
2022/01/24 00:12:45;;;;;;;;;;;;;;;;;;2069626;28;19968;-82
2022/01/24 00:16:26;;;;;;;;;;;;;;;;;;2066777;28;19996;-82
2022/01/24 00:17:39;;;;;;;;;;;;;;;;;;2066721;28;20279;-82
2022/01/24 00:27:44;;;;;;;;;;;;;;;;;;2066672;28;20278;-83
2022/01/24 00:28:44;;;;;;;;;;;;;;;;;;2066692;28;19957;-83
2022/01/24 00:29:45;;;;;;;;;;;;;;;;;;2066668;28;19921;-83
2022/01/24 00:30:45;;;;;;;;;;;;;;;;;;2066642;28;20355;-83
2022/01/24 00:31:46;;;;;;;;;;;;;;;;;;2066639;28;20008;-83
2022/01/24 00:32:46;;;;;;;;;;;;;;;;;;2066589;28;19909;-83
2022/01/24 00:33:47;;;;;;;;;;;;;;;;;;2066651;28;20442;-83
2022/01/24 00:34:47;;;;;;;;;;;;;;;;;;2066618;28;19902;-84
2022/01/24 00:35:47;;;;;;;;;;;;;;;;;;2066563;28;19917;-84
2022/01/24 00:36:48;;;;;;;;;;;;;;;;;;2066525;28;19992;-83
2022/01/24 00:37:49;;;;;;;;;;;;;;;;;;2058111;28;19941;-83
2022/01/24 00:38:49;;;;;;;;;;;;;;;;;;2058042;28;19909;-82
2022/01/24 00:39:49;;;;;;;;;;;;;;;;;;2066771;28;20366;-83
2022/01/24 00:40:50;;;;;;;;;;;;;;;;;;2066459;28;20052;-83
2022/01/24 00:42:58;;;;;;;;;;;;;;;;;;2066468;28;19910;-83
2022/01/24 00:45:34;;;;;;;;;;;;;;;;;;2066628;28;19909;-84
2022/01/24 00:46:41;;;;;;;;;;;;;;;;;;2066471;28;19945;-83
2022/01/24 00:54:01;;;;;;;;;;;;;;;;;;2066507;28;19922;-83
2022/01/24 00:55:02;;;;;;;;;;;;;;;;;;2068341;28;20371;-83
2022/01/24 00:56:03;;;;;;;;;;;;;;;;;;2066401;28;19910;-83
2022/01/24 00:57:03;;;;;;;;;;;;;;;;;;2066434;28;19968;-83
2022/01/24 00:58:04;;;;;;;;;;;;;;;;;;2066434;28;20367;-83
2022/01/24 00:59:04;;;;;;;;;;;;;;;;;;2066436;28;20359;-83
2022/01/24 01:00:04;;;;;;;;;;;;;;;;;;2066477;28;19922;-83
2022/01/24 01:01:05;;;;;;;;;;;;;;;;;;2067035;28;20347;-83
2022/01/24 01:02:06;;;;;;;;;;;;;;;;;;2070088;28;19910;-83
2022/01/24 01:03:06;;;;;;;;;;;;;;;;;;2068362;28;19944;-83
2022/01/24 01:04:06;;;;;;;;;;;;;;;;;;2067194;28;20360;-84
2022/01/24 01:05:37;;;;;;;;;;;;;;;;;;2057847;28;20261;-83
2022/01/24 01:06:40;;;;;;;;;;;;;;;;;;2062223;28;19909;-83
2022/01/24 01:07:54;;;;;;;;;;;;;;;;;;2065690;28;19909;-83
2022/01/24 01:18:14;;;;;;;;;;;;;;;;;;2066380;28;19910;-83
2022/01/24 01:19:14;;;;;;;;;;;;;;;;;;2066322;28;19913;-83
2022/01/24 01:20:20;;;;;;;;;;;;;;;;;;2057602;28;19910;-83
2022/01/24 01:21:20;;;;;;;;;;;;;;;;;;2061220;28;20543;-82
2022/01/24 01:22:20;;;;;;;;;;;;;;;;;;2057558;28;19942;-82
2022/01/24 01:23:20;;;;;;;;;;;;;;;;;;2057752;28;19924;-83
2022/01/24 01:24:22;;;;;;;;;;;;;;;;;;2066157;28;20359;-83
2022/01/24 01:25:23;;;;;;;;;;;;;;;;;;2066201;28;19975;-83
2022/01/24 01:26:46;;;;;;;;;;;;;;;;;;2066027;28;19909;-82
2022/01/24 01:27:49;;;;;;;;;;;;;;;;;;2066434;28;19905;-83
2022/01/24 01:28:54;;;;;;;;;;;;;;;;;;2066002;28;19906;-83
2022/01/24 01:30:02;;;;;;;;;;;;;;;;;;2057866;28;20440;-83
2022/01/24 01:31:08;;;;;;;;;;;;;;;;;;2059196;28;19902;-83
2022/01/24 01:33:00;;;;;;;;;;;;;;;;;;2068902;28;19914;-83
2022/01/24 01:36:59;;;;;;;;;;;;;;;;;;2066173;28;20367;-83
2022/01/24 01:52:41;;;;;;;;;;;;;;;;;;2066269;28;20004;-84
2022/01/24 01:54:03;;;;;;;;;;;;;;;;;;2057352;28;19910;-83
2022/01/24 01:56:07;;;;;;;;;;;;;;;;;;2066016;28;19917;-83
2022/01/24 01:57:18;;;;;;;;;;;;;;;;;;2065986;28;19910;-83
2022/01/24 01:58:20;;;;;;;;;;;;;;;;;;2066026;28;19913;-83
2022/01/24 01:59:20;;;;;;;;;;;;;;;;;;2057484;28;19921;-83
2022/01/24 02:00:20;;;;;;;;;;;;;;;;;;2057346;28;19910;-83
2022/01/24 02:01:20;;;;;;;;;;;;;;;;;;2066164;28;19920;-83
2022/01/24 02:02:21;;;;;;;;;;;;;;;;;;2057341;28;19913;-83
2022/01/24 02:03:22;;;;;;;;;;;;;;;;;;2057468;28;19920;-83
2022/01/24 02:04:22;;;;;;;;;;;;;;;;;;2057526;28;19989;-83
2022/01/24 02:05:23;;;;;;;;;;;;;;;;;;2065950;28;19913;-83
2022/01/24 02:06:24;;;;;;;;;;;;;;;;;;2065866;28;19948;-83
2022/01/24 02:07:24;;;;;;;;;;;;;;;;;;2066012;28;19910;-83
2022/01/24 02:08:29;;;;;;;;;;;;;;;;;;2057228;28;19910;-83
2022/01/24 02:09:30;;;;;;;;;;;;;;;;;;2057940;28;19910;-83
2022/01/24 02:10:33;;;;;;;;;;;;;;;;;;2065858;28;19941;-82
2022/01/24 02:11:34;;;;;;;;;;;;;;;;;;2065892;28;19976;-83
2022/01/24 02:12:34;;;;;;;;;;;;;;;;;;2065947;28;20333;-83
2022/01/24 02:13:35;;;;;;;;;;;;;;;;;;2066595;28;19910;-83
2022/01/24 02:14:40;;;;;;;;;;;;;;;;;;2066704;28;19909;-83
2022/01/24 02:16:59;;;;;;;;;;;;;;;;;;2066355;28;20303;-83
2022/01/24 02:18:19;;;;;;;;;;;;;;;;;;2068692;28;20444;-83
2022/01/24 02:19:29;;;;;;;;;;;;;;;;;;2066059;28;19921;-83
2022/01/24 02:21:05;;;;;;;;;;;;;;;;;;2057228;28;19910;-83
2022/01/24 02:24:18;;;;;;;;;;;;;;;;;;2066124;28;20246;-83
2022/01/24 02:25:27;;;;;;;;;;;;;;;;;;2065753;28;19999;-84
2022/01/24 02:26:28;;;;;;;;;;;;;;;;;;2066006;28;20000;-83
2022/01/24 02:27:41;;;;;;;;;;;;;;;;;;2065776;28;19905;-83
2022/01/24 02:31:37;;;;;;;;;;;;;;;;;;2065780;28;20343;-83
2022/01/24 02:32:38;;;;;;;;;;;;;;;;;;2065835;28;19915;-83
2022/01/24 02:33:39;;;;;;;;;;;;;;;;;;2065720;28;19953;-84
2022/01/24 02:34:42;;;;;;;;;;;;;;;;;;2065887;28;19920;-83
2022/01/24 02:35:43;;;;;;;;;;;;;;;;;;2057210;28;19942;-83
2022/01/24 02:36:44;;;;;;;;;;;;;;;;;;2057426;28;19913;-83
2022/01/24 02:37:44;;;;;;;;;;;;;;;;;;2065667;28;19975;-83
2022/01/24 02:39:56;;;;;;;;;;;;;;;;;;2065662;28;19921;-83
2022/01/24 02:48:49;;;;;;;;;;;;;;;;;;2065824;28;20323;-83
2022/01/24 02:49:49;;;;;;;;;;;;;;;;;;2065630;28;19976;-84
2022/01/24 02:52:09;;;;;;;;;;;;;;;;;;2065628;28;19914;-84
2022/01/24 02:53:10;;;;;;;;;;;;;;;;;;2057014;28;19910;-83
2022/01/24 02:54:20;;;;;;;;;;;;;;;;;;2049058;29;19953;-84
2022/01/24 02:55:20;;;;;;;;;;;;;;;;;;2058361;28;19918;-83
2022/01/24 02:56:20;;;;;;;;;;;;;;;;;;2065477;28;20306;-83
2022/01/24 02:57:21;;;;;;;;;;;;;;;;;;2065579;28;19906;-83
2022/01/24 02:58:21;;;;;;;;;;;;;;;;;;2065491;28;20343;-83
2022/01/24 02:59:22;;;;;;;;;;;;;;;;;;2065596;28;19909;-84
2022/01/24 03:00:22;;;;;;;;;;;;;;;;;;2057074;28;19953;-83
2022/01/24 03:01:23;;;;;;;;;;;;;;;;;;2057191;28;19910;-84
2022/01/24 03:02:23;;;;;;;;;;;;;;;;;;2065360;28;19909;-84
2022/01/24 03:03:23;;;;;;;;;;;;;;;;;;2065427;28;19991;-83
2022/01/24 03:04:24;;;;;;;;;;;;;;;;;;2065492;28;19964;-83
2022/01/24 03:05:24;;;;;;;;;;;;;;;;;;2056887;28;19917;-83
2022/01/24 03:06:24;;;;;;;;;;;;;;;;;;2056887;28;19910;-83
2022/01/24 03:07:25;;;;;;;;;;;;;;;;;;2065359;28;19909;-84
2022/01/24 03:08:25;;;;;;;;;;;;;;;;;;2056936;28;20287;-83
2022/01/24 03:09:26;;;;;;;;;;;;;;;;;;2056950;28;19910;-83
2022/01/24 03:10:42;;;;;;;;;;;;;;;;;;2065442;28;19920;-83
2022/01/24 03:13:20;;;;;;;;;;;;;;;;;;2059686;28;19914;-83
2022/01/24 03:14:22;;;;;;;;;;;;;;;;;;2057100;28;19910;-83
2022/01/24 03:15:22;;;;;;;;;;;;;;;;;;2049019;28;19910;-83
2022/01/24 03:16:23;;;;;;;;;;;;;;;;;;2056925;28;19966;-83
2022/01/24 03:17:23;;;;;;;;;;;;;;;;;;2065292;28;20008;-83
2022/01/24 03:18:24;;;;;;;;;;;;;;;;;;2065487;28;20351;-83
2022/01/24 03:19:25;;;;;;;;;;;;;;;;;;2065335;28;20032;-83
2022/01/24 03:20:25;;;;;;;;;;;;;;;;;;2056849;28;20295;-84
2022/01/24 03:21:25;;;;;;;;;;;;;;;;;;2056836;28;19914;-84
2022/01/24 03:22:25;;;;;;;;;;;;;;;;;;2057077;28;19910;-83
2022/01/24 03:23:26;;;;;;;;;;;;;;;;;;2057156;28;20094;-84
2022/01/24 03:24:26;;;;;;;;;;;;;;;;;;2057008;28;20327;-84
2022/01/24 03:25:27;;;;;;;;;;;;;;;;;;2057012;28;19910;-84
2022/01/24 03:26:27;;;;;;;;;;;;;;;;;;2056609;28;19910;-84
2022/01/24 03:27:27;;;;;;;;;;;;;;;;;;2048715;29;19915;-83
2022/01/24 03:28:28;;;;;;;;;;;;;;;;;;2056719;28;19953;-83
2022/01/24 03:29:28;;;;;;;;;;;;;;;;;;2065272;28;19984;-84
2022/01/24 03:30:28;;;;;;;;;;;;;;;;;;2065346;28;19916;-83
2022/01/24 03:31:28;;;;;;;;;;;;;;;;;;2065313;28;20382;-83
2022/01/24 03:32:29;;;;;;;;;;;;;;;;;;2064791;28;19914;-83
2022/01/24 03:33:29;;;;;;;;;;;;;;;;;;2065240;28;20418;-83
2022/01/24 03:34:29;;;;;;;;;;;;;;;;;;2065352;28;19933;-83
2022/01/24 03:35:30;;;;;;;;;;;;;;;;;;2065425;28;19996;-83
2022/01/24 03:36:30;;;;;;;;;;;;;;;;;;2065100;28;20004;-83
2022/01/24 03:37:30;;;;;;;;;;;;;;;;;;2056920;28;19953;-83
2022/01/24 03:38:31;;;;;;;;;;;;;;;;;;2056688;28;19950;-83
2022/01/24 03:39:31;;;;;;;;;;;;;;;;;;2065278;28;19963;-83
2022/01/24 03:40:31;;;;;;;;;;;;;;;;;;2056609;28;19921;-83
2022/01/24 03:41:32;;;;;;;;;;;;;;;;;;2056847;28;19920;-84
2022/01/24 03:42:32;;;;;;;;;;;;;;;;;;2065119;28;19909;-84
2022/01/24 03:43:33;;;;;;;;;;;;;;;;;;2056953;28;19921;-83
2022/01/24 03:44:34;;;;;;;;;;;;;;;;;;2048660;28;20280;-83
2022/01/24 03:45:47;;;;;;;;;;;;;;;;;;2056727;28;20006;-83
2022/01/24 03:47:43;;;;;;;;;;;;;;;;;;2065212;28;19996;-83
2022/01/24 03:48:11;;;;;;;;;;;;;;;;;;2061299;28;19902;-83
2022/01/24 03:49:44;;;;;;;;;;;;;;;;;;2056564;28;20339;-83
2022/01/24 03:50:32;;;;;;;;;;;;;;;;;;2059426;28;19921;-83
2022/01/24 03:51:32;;;;;;;;;;;;;;;;;;2065246;28;20274;-84
2022/01/24 03:52:33;;;;;;;;;;;;;;;;;;2065200;28;19909;-84
2022/01/24 03:53:34;;;;;;;;;;;;;;;;;;2065117;28;20334;-83
2022/01/24 03:54:35;;;;;;;;;;;;;;;;;;2065248;28;20381;-84
2022/01/24 03:55:35;;;;;;;;;;;;;;;;;;2065028;28;20341;-84
2022/01/24 03:56:35;;;;;;;;;;;;;;;;;;2065230;28;19910;-83
2022/01/24 03:57:36;;;;;;;;;;;;;;;;;;2065087;28;19956;-83
2022/01/24 03:58:36;;;;;;;;;;;;;;;;;;2065294;28;20016;-83
2022/01/24 03:59:36;;;;;;;;;;;;;;;;;;2065201;28;19909;-83
2022/01/24 04:00:37;;;;;;;;;;;;;;;;;;2065320;28;19932;-84
2022/01/24 04:01:37;;;;;;;;;;;;;;;;;;2056594;28;20340;-83
2022/01/24 04:02:37;;;;;;;;;;;;;;;;;;2056906;28;19918;-84
2022/01/24 04:03:38;;;;;;;;;;;;;;;;;;2065148;28;19996;-84
2022/01/24 04:04:41;;;;;;;;;;;;;;;;;;2065456;28;19906;-83
2022/01/24 04:05:42;;;;;;;;;;;;;;;;;;2065246;28;19963;-84
2022/01/24 04:06:42;;;;;;;;;;;;;;;;;;2065289;28;20302;-83
2022/01/24 04:07:42;;;;;;;;;;;;;;;;;;2056594;28;21173;-83
2022/01/24 04:08:42;;;;;;;;;;;;;;;;;;2056883;28;19906;-84
2022/01/24 04:09:43;;;;;;;;;;;;;;;;;;2056589;28;19988;-84
2022/01/24 04:10:50;;;;;;;;;;;;;;;;;;2056859;28;20000;-83
2022/01/24 04:11:54;;;;;;;;;;;;;;;;;;2056671;28;20383;-84
2022/01/24 04:12:54;;;;;;;;;;;;;;;;;;2058200;28;19920;-84
2022/01/24 04:14:09;;;;;;;;;;;;;;;;;;2065142;28;19913;-83
2022/01/24 04:16:29;;;;;;;;;;;;;;;;;;2056500;28;19924;-83
2022/01/24 04:17:39;;;;;;;;;;;;;;;;;;2065189;28;19906;-83
2022/01/24 04:22:14;;;;;;;;;;;;;;;;;;2065330;28;20249;-83
2022/01/24 04:23:19;;;;;;;;;;;;;;;;;;2064617;28;20016;-84
2022/01/24 04:24:22;;;;;;;;;;;;;;;;;;2064604;28;19920;-83
2022/01/24 04:25:23;;;;;;;;;;;;;;;;;;2064668;28;19916;-83
2022/01/24 04:26:24;;;;;;;;;;;;;;;;;;2064535;28;20378;-83
2022/01/24 04:27:25;;;;;;;;;;;;;;;;;;2065127;28;19921;-83
2022/01/24 04:28:25;;;;;;;;;;;;;;;;;;2056350;28;20215;-83
2022/01/24 04:29:26;;;;;;;;;;;;;;;;;;2056721;28;19910;-83
2022/01/24 04:30:26;;;;;;;;;;;;;;;;;;2064922;28;20075;-83
2022/01/24 04:31:27;;;;;;;;;;;;;;;;;;2065143;28;20000;-84
2022/01/24 04:32:27;;;;;;;;;;;;;;;;;;2064926;28;19941;-84
2022/01/24 04:33:27;;;;;;;;;;;;;;;;;;2064961;28;20407;-85
2022/01/24 04:34:27;;;;;;;;;;;;;;;;;;2065194;28;20331;-83
2022/01/24 04:35:28;;;;;;;;;;;;;;;;;;2065051;28;19909;-84
2022/01/24 04:36:28;;;;;;;;;;;;;;;;;;2064934;28;19997;-83
2022/01/24 04:37:28;;;;;;;;;;;;;;;;;;2065095;28;19909;-84
2022/01/24 04:38:29;;;;;;;;;;;;;;;;;;2065038;28;19917;-83
2022/01/24 04:39:29;;;;;;;;;;;;;;;;;;2056505;28;20248;-84
2022/01/24 04:40:29;;;;;;;;;;;;;;;;;;2056684;28;20340;-85
2022/01/24 04:41:34;;;;;;;;;;;;;;;;;;2064865;28;19909;-84
2022/01/24 04:42:54;;;;;;;;;;;;;;;;;;2065119;28;19959;-84
2022/01/24 04:44:08;;;;;;;;;;;;;;;;;;2067606;28;19921;-84
2022/01/24 04:51:08;;;;;;;;;;;;;;;;;;2066652;28;19945;-86
2022/01/24 04:52:15;;;;;;;;;;;;;;;;;;2066561;28;19914;-84
2022/01/24 04:53:46;;;;;;;;;;;;;;;;;;2066499;28;20402;-82
2022/01/24 04:54:44;;;;;;;;;;;;;;;;;;2066480;28;19914;-83
2022/01/24 04:55:45;;;;;;;;;;;;;;;;;;2066268;28;19910;-84
2022/01/24 04:56:45;;;;;;;;;;;;;;;;;;2066598;28;19919;-83
2022/01/24 04:57:47;;;;;;;;;;;;;;;;;;2066464;28;20357;-83
2022/01/24 04:58:48;;;;;;;;;;;;;;;;;;2066569;28;19910;-83
2022/01/24 04:59:50;;;;;;;;;;;;;;;;;;2066440;28;19945;-83
2022/01/24 05:00:50;;;;;;;;;;;;;;;;;;2066611;28;20260;-83
2022/01/24 05:01:50;;;;;;;;;;;;;;;;;;2066361;28;19909;-83
2022/01/24 05:02:51;;;;;;;;;;;;;;;;;;2066508;28;20279;-83
2022/01/24 05:03:51;;;;;;;;;;;;;;;;;;2066367;28;19985;-83
2022/01/24 05:04:53;;;;;;;;;;;;;;;;;;2066494;28;19910;-83
2022/01/24 05:05:53;;;;;;;;;;;;;;;;;;2066393;28;19910;-84
2022/01/24 05:06:54;;;;;;;;;;;;;;;;;;2066417;28;19910;-83
2022/01/24 05:07:54;;;;;;;;;;;;;;;;;;2066409;28;19913;-84
2022/01/24 05:08:54;;;;;;;;;;;;;;;;;;2057749;28;20324;-83
2022/01/24 05:10:13;;;;;;;;;;;;;;;;;;2057835;28;19910;-83
2022/01/24 05:11:19;;;;;;;;;;;;;;;;;;2052209;28;20348;-84
2022/01/24 05:24:13;;;;;;;;;;;;;;;;;;2041583;29;20302;-83
2022/01/24 05:25:13;;;;;;;;;;;;;;;;;;2041442;29;19911;-83
2022/01/24 05:26:15;;;;;;;;;;;;;;;;;;2041499;29;19915;-83
2022/01/24 05:27:15;;;;;;;;;;;;;;;;;;2041520;29;19913;-83
2022/01/24 05:28:16;;;;;;;;;;;;;;;;;;2041612;29;19911;-83
2022/01/24 05:29:16;;;;;;;;;;;;;;;;;;2033445;29;19929;-83
2022/01/24 05:30:16;;;;;;;;;;;;;;;;;;2048077;29;19922;-83
2022/01/24 05:31:17;;;;;;;;;;;;;;;;;;2057666;28;19917;-83
2022/01/24 05:32:17;;;;;;;;;;;;;;;;;;2066167;28;20020;-83
2022/01/24 05:33:17;;;;;;;;;;;;;;;;;;2066054;28;19955;-83
2022/01/24 05:34:17;;;;;;;;;;;;;;;;;;2066288;28;20000;-83
2022/01/24 05:35:18;;;;;;;;;;;;;;;;;;2057645;28;19910;-83
2022/01/24 05:36:18;;;;;;;;;;;;;;;;;;2057842;28;19920;-83
2022/01/24 05:37:18;;;;;;;;;;;;;;;;;;2065542;28;20267;-83
2022/01/24 05:38:21;;;;;;;;;;;;;;;;;;2065813;28;19985;-83
2022/01/24 05:39:22;;;;;;;;;;;;;;;;;;2066325;28;19909;-83
2022/01/24 05:40:22;;;;;;;;;;;;;;;;;;2066202;28;19910;-83
2022/01/24 05:41:23;;;;;;;;;;;;;;;;;;2057708;28;19911;-83
2022/01/24 05:42:23;;;;;;;;;;;;;;;;;;2057685;28;19910;-85
2022/01/24 05:43:23;;;;;;;;;;;;;;;;;;2066155;28;19949;-84
2022/01/24 05:44:24;;;;;;;;;;;;;;;;;;2066491;28;19910;-84
2022/01/24 05:45:24;;;;;;;;;;;;;;;;;;2066041;28;20567;-84
2022/01/24 05:46:24;;;;;;;;;;;;;;;;;;2066550;28;20342;-84
2022/01/24 05:47:25;;;;;;;;;;;;;;;;;;2049829;29;19910;-84
2022/01/24 05:48:25;;;;;;;;;;;;;;;;;;2050869;29;20279;-84
2022/01/24 05:49:25;;;;;;;;;;;;;;;;;;2066435;28;19914;-86
2022/01/24 05:50:26;;;;;;;;;;;;;;;;;;2066831;28;19929;-83
2022/01/24 05:51:28;;;;;;;;;;;;;;;;;;2057717;28;19910;-83
2022/01/24 05:52:28;;;;;;;;;;;;;;;;;;2057746;28;19929;-83
2022/01/24 05:53:28;;;;;;;;;;;;;;;;;;2066180;28;19988;-83
2022/01/24 05:54:30;;;;;;;;;;;;;;;;;;2065950;28;19937;-84
2022/01/24 05:55:31;;;;;;;;;;;;;;;;;;2066013;28;19909;-85
2022/01/24 05:56:31;;;;;;;;;;;;;;;;;;2065973;28;19952;-84
2022/01/24 05:57:31;;;;;;;;;;;;;;;;;;2066266;28;19910;-84
2022/01/24 05:58:31;;;;;;;;;;;;;;;;;;2066002;28;19918;-83
2022/01/24 05:59:32;;;;;;;;;;;;;;;;;;2066061;28;20001;-83
2022/01/24 06:00:32;;;;;;;;;;;;;;;;;;2065977;28;19913;-83
2022/01/24 06:01:33;;;;;;;;;;;;;;;;;;2057538;28;19917;-84
2022/01/24 06:02:33;;;;;;;;;;;;;;;;;;2057388;28;20359;-84
2022/01/24 06:03:33;;;;;;;;;;;;;;;;;;2065888;28;19909;-84
2022/01/24 06:04:33;;;;;;;;;;;;;;;;;;2066890;28;19909;-84
2022/01/24 06:05:34;;;;;;;;;;;;;;;;;;2065952;28;20394;-83
2022/01/24 06:06:34;;;;;;;;;;;;;;;;;;2065882;28;19925;-84
2022/01/24 06:07:34;;;;;;;;;;;;;;;;;;2065923;28;19976;-83
2022/01/24 06:08:35;;;;;;;;;;;;;;;;;;2057161;28;20343;-85
2022/01/24 06:09:35;;;;;;;;;;;;;;;;;;2057011;28;19910;-83
2022/01/24 06:10:39;;;;;;;;;;;;;;;;;;2065738;28;20370;-83
2022/01/24 06:11:39;;;;;;;;;;;;;;;;;;2065636;28;19920;-83
2022/01/24 06:12:42;;;;;;;;;;;;;;;;;;2065602;28;20393;-83
2022/01/24 06:13:45;;;;;;;;;;;;;;;;;;2065458;28;19909;-83
2022/01/24 06:14:45;;;;;;;;;;;;;;;;;;2065604;28;19993;-83
2022/01/24 06:15:46;;;;;;;;;;;;;;;;;;2065454;28;19909;-84
2022/01/24 06:16:46;;;;;;;;;;;;;;;;;;2065741;28;19917;-84
2022/01/24 06:17:47;;;;;;;;;;;;;;;;;;2065415;28;20352;-85
2022/01/24 06:18:47;;;;;;;;;;;;;;;;;;2065516;28;19917;-83
2022/01/24 06:19:47;;;;;;;;;;;;;;;;;;2065718;28;20471;-83
2022/01/24 06:20:47;;;;;;;;;;;;;;;;;;2065968;28;19916;-83
2022/01/24 06:21:48;;;;;;;;;;;;;;;;;;2065676;28;19971;-84
2022/01/24 06:22:48;;;;;;;;;;;;;;;;;;2065911;28;19910;-84
2022/01/24 06:23:48;;;;;;;;;;;;;;;;;;2065858;28;19912;-84
2022/01/24 06:24:49;;;;;;;;;;;;;;;;;;2057336;28;19977;-85
2022/01/24 06:25:49;;;;;;;;;;;;;;;;;;2057533;28;19949;-84
2022/01/24 06:26:49;;;;;;;;;;;;;;;;;;2057998;28;19909;-84
2022/01/24 06:27:50;;;;;;;;;;;;;;;;;;2057574;28;19973;-85
2022/01/24 06:28:50;;;;;;;;;;;;;;;;;;2066404;28;19914;-85
2022/01/24 06:29:51;;;;;;;;;;;;;;;;;;2066098;28;20369;-86
2022/01/24 06:30:51;;;;;;;;;;;;;;;;;;2066335;28;19920;-85
2022/01/24 06:31:51;;;;;;;;;;;;;;;;;;2066367;28;19918;-85
2022/01/24 06:32:52;;;;;;;;;;;;;;;;;;2065744;28;20323;-84
2022/01/24 06:33:52;;;;;;;;;;;;;;;;;;2065811;28;20008;-85
2022/01/24 06:34:52;;;;;;;;;;;;;;;;;;2058100;28;20364;-84
2022/01/24 06:35:52;;;;;;;;;;;;;;;;;;2057149;28;19972;-83
2022/01/24 06:36:53;;;;;;;;;;;;;;;;;;2066019;28;20007;-83
2022/01/24 06:37:53;;;;;;;;;;;;;;;;;;2066696;28;19960;-85
2022/01/24 06:38:53;;;;;;;;;;;;;;;;;;2068400;28;19909;-84
2022/01/24 06:39:54;;;;;;;;;;;;;;;;;;2065882;28;19909;-84
2022/01/24 06:40:54;;;;;;;;;;;;;;;;;;2065613;28;19912;-84
2022/01/24 06:42:21;;;;;;;;;;;;;;;;;;2065725;28;19932;-84
2022/01/24 06:43:21;;;;;;;;;;;;;;;;;;2065819;28;19902;-84
2022/01/24 06:44:21;;;;;;;;;;;;;;;;;;2065722;28;19979;-83
2022/01/24 06:45:22;;;;;;;;;;;;;;;;;;2057173;28;19902;-84
2022/01/24 06:46:22;;;;;;;;;;;;;;;;;;2055782;28;20351;-84
2022/01/24 06:47:23;;;;;;;;;;;;;;;;;;2059605;28;20358;-83
2022/01/24 06:48:23;;;;;;;;;;;;;;;;;;2057186;28;19945;-82
2022/01/24 06:49:24;;;;;;;;;;;;;;;;;;2057539;28;19945;-83
2022/01/24 06:50:24;;;;;;;;;;;;;;;;;;2057056;28;19980;-83
2022/01/24 06:51:25;;;;;;;;;;;;;;;;;;2057215;28;20017;-83
2022/01/24 06:52:25;;;;;;;;;;;;;;;;;;2057678;28;19957;-84
2022/01/24 06:53:25;;;;;;;;;;;;;;;;;;2057543;28;19997;-84
2022/01/24 06:54:28;;;;;;;;;;;;;;;;;;2057511;28;19953;-84
2022/01/24 06:55:28;;;;;;;;;;;;;;;;;;2057491;28;19917;-85
2022/01/24 06:56:28;;;;;;;;;;;;;;;;;;2057388;28;19914;-84
2022/01/24 06:57:29;;;;;;;;;;;;;;;;;;2057338;28;19910;-84
2022/01/24 06:58:29;;;;;;;;;;;;;;;;;;2057421;28;20347;-84
2022/01/24 06:59:29;;;;;;;;;;;;;;;;;;2057550;28;19941;-84
2022/01/24 07:00:30;;;;;;;;;;;;;;;;;;2057751;28;20240;-83
2022/01/24 07:01:31;;;;;;;;;;;;;;;;;;2057455;28;20007;-84
2022/01/24 07:02:31;;;;;;;;;;;;;;;;;;2057436;28;19910;-85
2022/01/24 07:03:31;;;;;;;;;;;;;;;;;;2057390;28;19913;-84
2022/01/24 07:04:32;;;;;;;;;;;;;;;;;;2057598;28;19991;-84
2022/01/24 07:05:32;;;;;;;;;;;;;;;;;;2048933;28;20190;-84
2022/01/24 07:06:32;;;;;;;;;;;;;;;;;;2048956;28;19910;-85
2022/01/24 07:07:33;;;;;;;;;;;;;;;;;;2056540;28;19914;-84
2022/01/24 07:08:33;;;;;;;;;;;;;;;;;;2056843;28;20355;-83
2022/01/24 07:09:34;;;;;;;;;;;;;;;;;;2056784;28;19993;-84
2022/01/24 07:10:34;;;;;;;;;;;;;;;;;;2056795;28;19914;-84
2022/01/24 07:11:34;;;;;;;;;;;;;;;;;;2056721;28;19909;-84
2022/01/24 07:12:35;;;;;;;;;;;;;;;;;;2056720;28;19914;-84
2022/01/24 07:13:35;;;;;;;;;;;;;;;;;;2056622;28;20011;-82
2022/01/24 07:14:36;;;;;;;;;;;;;;;;;;2056250;28;19910;-83
2022/01/24 07:15:45;;;;;;;;;;;;;;;;;;2048969;28;19926;-84
2022/01/24 07:17:34;;;;;;;;;;;;;;;;;;2054421;28;19923;-83
2022/01/24 07:18:57;;;;;;;;;;;;;;;;;;2057395;28;19972;-83
2022/01/24 07:19:32;;;;;;;;;;;;;;;;;;2058566;28;19976;-84
2022/01/24 07:20:35;;;;;;;;;;;;;;;;;;2063633;28;19918;-84
2022/01/24 07:21:36;;;;;;;;;;;;;;;;;;2062579;28;19920;-83
2022/01/24 07:22:36;;;;;;;;;;;;;;;;;;2065016;28;19910;-82
2022/01/24 07:23:36;;;;;;;;;;;;;;;;;;2063310;28;19984;-83
2022/01/24 07:24:37;;;;;;;;;;;;;;;;;;2060999;28;19910;-83
2022/01/24 07:25:37;;;;;;;;;;;;;;;;;;2050307;28;19920;-83
2022/01/24 07:26:37;;;;;;;;;;;;;;;;;;2052250;28;19972;-83
2022/01/24 07:28:14;;;;;;;;;;;;;;;;;;2056900;28;19952;-82
2022/01/24 07:29:15;;;;;;;;;;;;;;;;;;2060438;28;19910;-82
2022/01/24 07:30:15;;;;;;;;;;;;;;;;;;2063267;28;19956;-82
2022/01/24 07:31:15;;;;;;;;;;;;;;;;;;2050081;28;20312;-82
2022/01/24 07:32:15;;;;;;;;;;;;;;;;;;2046455;29;19981;-82
2022/01/24 07:33:17;;;;;;;;;;;;;;;;;;2054827;28;20347;-82
2022/01/24 07:34:18;;;;;;;;;;;;;;;;;;2055657;28;20352;-82
2022/01/24 07:35:18;;;;;;;;;;;;;;;;;;2056459;28;19910;-82
2022/01/24 07:36:18;;;;;;;;;;;;;;;;;;2053256;28;19910;-82
2022/01/24 07:37:18;;;;;;;;;;;;;;;;;;2041678;29;19958;-81
2022/01/24 07:38:19;;;;;;;;;;;;;;;;;;2048643;29;19910;-82
2022/01/24 07:39:19;;;;;;;;;;;;;;;;;;2048876;28;19910;-81
2022/01/24 07:40:21;;;;;;;;;;;;;;;;;;2056950;28;20363;-81
2022/01/24 07:41:27;;;;;;;;;;;;;;;;;;2056790;28;19918;-81
2022/01/24 07:42:51;;;;;;;;;;;;;;;;;;2059867;28;19920;-82
2022/01/24 07:43:47;;;;;;;;;;;;;;;;;;2059405;28;19914;-81
2022/01/24 07:44:48;;;;;;;;;;;;;;;;;;2052236;28;19954;-81
2022/01/24 07:45:49;;;;;;;;;;;;;;;;;;2051494;28;20372;-82
2022/01/24 07:46:49;;;;;;;;;;;;;;;;;;2057031;28;19960;-85
2022/01/24 07:47:49;;;;;;;;;;;;;;;;;;2049264;28;19938;-82
2022/01/24 07:48:50;;;;;;;;;;;;;;;;;;2048925;29;20268;-83
2022/01/24 07:49:50;;;;;;;;;;;;;;;;;;2057348;28;20434;-83
2022/01/24 07:50:52;;;;;;;;;;;;;;;;;;2057348;28;19914;-82
2022/01/24 07:51:52;;;;;;;;;;;;;;;;;;2049447;28;19914;-82
2022/01/24 07:52:53;;;;;;;;;;;;;;;;;;2048677;29;19993;-83
2022/01/24 07:53:53;;;;;;;;;;;;;;;;;;2056003;28;20371;-82
2022/01/24 07:54:54;;;;;;;;;;;;;;;;;;2061756;28;19996;-81
2022/01/24 07:55:54;;;;;;;;;;;;;;;;;;2065117;28;20366;-81
2022/01/24 07:56:54;;;;;;;;;;;;;;;;;;2056486;28;19910;-82
2022/01/24 07:57:55;;;;;;;;;;;;;;;;;;2056117;28;20017;-82
2022/01/24 07:58:55;;;;;;;;;;;;;;;;;;2064749;28;20363;-82
2022/01/24 07:59:55;;;;;;;;;;;;;;;;;;2056620;28;20028;-82
2022/01/24 08:00:56;;;;;;;;;;;;;;;;;;2056858;28;20401;-81
2022/01/24 08:01:56;;;;;;;;;;;;;;;;;;2056683;28;19921;-82
2022/01/24 08:02:57;;;;;;;;;;;;;;;;;;2056896;28;19910;-81
2022/01/24 08:03:57;;;;;;;;;;;;;;;;;;2061421;28;19934;-82
2022/01/24 08:04:58;;;;;;;;;;;;;;;;;;2055353;28;19910;-82
2022/01/24 08:05:58;;;;;;;;;;;;;;;;;;2056640;28;19914;-83
2022/01/24 08:06:58;;;;;;;;;;;;;;;;;;2062759;28;19906;-83
2022/01/24 08:07:58;;;;;;;;;;;;;;;;;;2064246;28;19917;-84
2022/01/24 08:08:59;;;;;;;;;;;;;;;;;;2057335;28;19989;-83
2022/01/24 08:09:59;;;;;;;;;;;;;;;;;;2056831;28;20023;-82
2022/01/24 08:10:59;;;;;;;;;;;;;;;;;;2062060;28;20346;-83
2022/01/24 08:12:01;;;;;;;;;;;;;;;;;;2064942;28;19918;-82
2022/01/24 08:13:01;;;;;;;;;;;;;;;;;;2062895;28;19913;-82
2022/01/24 08:14:02;;;;;;;;;;;;;;;;;;2065028;28;19994;-82
2022/01/24 08:15:03;;;;;;;;;;;;;;;;;;2060400;28;19945;-82
2022/01/24 08:16:03;;;;;;;;;;;;;;;;;;2057018;28;19910;-81
2022/01/24 08:17:04;;;;;;;;;;;;;;;;;;2058219;28;20255;-82
2022/01/24 08:18:04;;;;;;;;;;;;;;;;;;2055430;28;20257;-82
2022/01/24 08:19:04;;;;;;;;;;;;;;;;;;2056208;28;19914;-81
2022/01/24 08:20:05;;;;;;;;;;;;;;;;;;2055358;28;19964;-82
2022/01/24 08:21:05;;;;;;;;;;;;;;;;;;2047908;29;19946;-81
2022/01/24 08:22:05;;;;;;;;;;;;;;;;;;2051015;28;19954;-81
2022/01/24 08:23:06;;;;;;;;;;;;;;;;;;2055573;28;19921;-81
2022/01/24 08:24:07;;;;;;;;;;;;;;;;;;2055509;28;19920;-82
2022/01/24 08:25:08;;;;;;;;;;;;;;;;;;2057933;28;20264;-82
2022/01/24 08:26:09;;;;;;;;;;;;;;;;;;2058013;28;19914;-82
2022/01/24 08:27:09;;;;;;;;;;;;;;;;;;2058208;28;20269;-82
2022/01/24 08:28:09;;;;;;;;;;;;;;;;;;2066615;28;19937;-82
2022/01/24 08:29:10;;;;;;;;;;;;;;;;;;2058061;28;20021;-82
2022/01/24 08:30:12;;;;;;;;;;;;;;;;;;2050242;28;19970;-82
2022/01/24 08:31:12;;;;;;;;;;;;;;;;;;2049443;28;20395;-82
2022/01/24 08:32:12;;;;;;;;;;;;;;;;;;2057987;28;19914;-82
2022/01/24 08:33:13;;;;;;;;;;;;;;;;;;2062447;28;19936;-82
2022/01/24 08:34:13;;;;;;;;;;;;;;;;;;2056550;28;20364;-81